createdAt,value
2022-12-12T00:00:22.012Z,1.50
2022-12-12T00:02:49.234Z,1.50
2022-12-12T00:05:19.075Z,1.50
2022-12-12T00:07:46.167Z,1.50
2022-12-12T00:10:13.000Z,1.50
2022-12-12T00:12:40.187Z,1.50
2022-12-12T00:15:08.125Z,1.40
2022-12-12T00:17:34.895Z,1.40
2022-12-12T00:20:01.880Z,1.40
2022-12-12T00:22:28.759Z,1.30
2022-12-12T00:24:55.627Z,1.30
2022-12-12T00:27:22.435Z,1.20
2022-12-12T00:29:55.636Z,1.20
2022-12-12T00:32:22.763Z,1.20
2022-12-12T00:34:49.925Z,1.10
2022-12-12T00:37:17.329Z,1.10
2022-12-12T00:39:44.150Z,1.00
2022-12-12T00:42:10.892Z,1.00
2022-12-12T00:44:37.747Z,1.00
2022-12-12T00:47:04.653Z,1.00
2022-12-12T00:49:31.461Z,1.00
2022-12-12T00:51:58.219Z,0.90
2022-12-12T00:54:25.010Z,0.90
2022-12-12T00:56:52.126Z,0.90
2022-12-12T00:59:19.748Z,0.90
2022-12-12T01:01:47.589Z,0.90
2022-12-12T01:04:14.688Z,0.90
2022-12-12T01:06:41.479Z,0.90
2022-12-12T01:09:08.262Z,0.90
2022-12-12T01:11:35.108Z,0.80
2022-12-12T01:14:02.097Z,0.80
2022-12-12T01:16:30.328Z,0.80
2022-12-12T01:18:57.767Z,0.80
2022-12-12T01:21:25.130Z,0.70
2022-12-12T01:23:51.951Z,0.70
2022-12-12T01:26:23.359Z,0.60
2022-12-12T01:28:51.486Z,0.60
2022-12-12T01:31:18.408Z,0.50
2022-12-12T01:33:46.425Z,0.50
2022-12-12T01:36:23.035Z,0.40
2022-12-12T01:38:52.992Z,0.40
2022-12-12T01:41:20.805Z,0.40
2022-12-12T01:43:48.035Z,0.40
2022-12-12T01:46:35.424Z,0.40
2022-12-12T01:49:16.947Z,0.40
2022-12-12T01:51:46.051Z,0.40
2022-12-12T01:54:21.547Z,0.40
2022-12-12T01:56:49.435Z,0.40
2022-12-12T01:59:19.873Z,0.40
2022-12-12T02:01:47.574Z,0.40
2022-12-12T02:04:15.361Z,0.50
2022-12-12T02:06:43.380Z,0.50
2022-12-12T02:09:13.504Z,0.50
2022-12-12T02:11:53.269Z,0.50
2022-12-12T02:14:33.542Z,0.50
2022-12-12T02:17:44.911Z,0.50
2022-12-12T02:20:43.447Z,0.50
2022-12-12T02:23:28.133Z,0.50
2022-12-12T02:26:44.540Z,0.60
2022-12-12T02:29:54.756Z,0.60
2022-12-12T02:32:43.745Z,0.60
2022-12-12T02:39:42.899Z,0.60
2022-12-12T02:42:15.326Z,0.60
2022-12-12T02:45:10.810Z,0.50
2022-12-12T02:47:48.874Z,0.50
2022-12-12T02:50:22.369Z,0.50
2022-12-12T02:52:49.480Z,0.50
2022-12-12T02:55:17.654Z,0.50
2022-12-12T02:57:44.761Z,0.40
2022-12-12T03:00:17.908Z,0.40
2022-12-12T03:03:39.505Z,0.40
2022-12-12T03:06:48.913Z,0.40
2022-12-12T03:09:27.368Z,0.40
2022-12-12T03:12:39.357Z,0.30
2022-12-12T03:15:23.209Z,0.30
2022-12-12T03:18:28.426Z,0.30
2022-12-12T03:21:29.816Z,0.30
2022-12-12T03:24:06.087Z,0.30
2022-12-12T03:27:01.952Z,0.30
2022-12-12T03:29:36.628Z,0.30
2022-12-12T03:32:22.600Z,0.30
2022-12-12T03:34:58.495Z,0.30
2022-12-12T03:37:35.585Z,0.30
2022-12-12T03:40:49.908Z,0.30
2022-12-12T03:43:28.461Z,0.30
2022-12-12T03:46:19.837Z,0.30
2022-12-12T03:49:06.510Z,0.30
2022-12-12T03:51:40.226Z,0.30
2022-12-12T03:54:16.712Z,0.30
2022-12-12T03:56:56.473Z,0.30
2022-12-12T03:59:42.722Z,0.30
2022-12-12T04:02:44.291Z,0.30
2022-12-12T04:05:21.014Z,0.30
2022-12-12T04:08:08.566Z,0.30
2022-12-12T04:11:10.763Z,0.30
2022-12-12T04:13:53.910Z,0.40
2022-12-12T04:16:25.830Z,0.40
2022-12-12T04:19:42.303Z,0.40
2022-12-12T04:22:36.838Z,0.40
2022-12-12T04:25:14.713Z,0.40
2022-12-12T04:27:50.800Z,0.40
2022-12-12T04:30:17.731Z,0.40
2022-12-12T04:33:09.073Z,0.40
2022-12-12T04:35:45.768Z,0.40
2022-12-12T04:38:22.754Z,0.40
2022-12-12T04:40:57.645Z,0.30
2022-12-12T04:43:34.374Z,0.30
2022-12-12T04:46:13.432Z,0.30
2022-12-12T04:48:59.105Z,0.20
2022-12-12T04:51:33.672Z,0.20
2022-12-12T04:54:13.142Z,0.20
2022-12-12T04:56:42.075Z,0.20
2022-12-12T04:59:09.163Z,0.20
2022-12-12T05:01:53.881Z,0.20
2022-12-12T05:04:41.666Z,0.10
2022-12-12T05:07:16.042Z,0.20
2022-12-12T05:09:43.838Z,0.10
2022-12-12T05:12:10.713Z,0.10
2022-12-12T05:14:37.520Z,0.10
2022-12-12T05:17:10.709Z,0.10
2022-12-12T05:19:37.570Z,0.20
2022-12-12T05:22:04.460Z,0.20
2022-12-12T05:24:31.970Z,0.20
2022-12-12T05:26:59.845Z,0.20
2022-12-12T05:29:26.860Z,0.20
2022-12-12T05:31:53.697Z,0.20
2022-12-12T05:34:20.479Z,0.20
2022-12-12T05:36:47.888Z,0.20
2022-12-12T05:39:14.810Z,0.20
2022-12-12T05:41:41.924Z,0.20
2022-12-12T05:44:08.789Z,0.20
2022-12-12T05:46:35.591Z,0.20
2022-12-12T05:49:02.356Z,0.20
2022-12-12T05:51:29.150Z,0.20
2022-12-12T05:53:56.058Z,0.20
2022-12-12T05:56:22.820Z,0.20
2022-12-12T05:58:49.631Z,0.10
2022-12-12T06:01:16.431Z,0.10
2022-12-12T06:03:43.272Z,0.10
2022-12-12T06:06:10.116Z,0.00
2022-12-12T06:08:37.343Z,-0.10
2022-12-12T06:11:08.562Z,-0.10
2022-12-12T06:13:36.861Z,-0.20
2022-12-12T06:16:13.728Z,-0.20
2022-12-12T06:18:40.601Z,-0.30
2022-12-12T06:21:13.278Z,-0.30
2022-12-12T06:23:42.100Z,-0.30
2022-12-12T06:26:12.529Z,-0.40
2022-12-12T06:28:39.805Z,-0.40
2022-12-12T06:31:11.880Z,-0.50
2022-12-12T06:33:41.775Z,-0.50
2022-12-12T06:36:13.064Z,-0.50
2022-12-12T06:38:41.021Z,-0.50
2022-12-12T06:41:11.372Z,-0.50
2022-12-12T06:43:38.614Z,-0.50
2022-12-12T06:46:08.769Z,-0.60
2022-12-12T06:48:36.374Z,-0.50
2022-12-12T06:51:09.660Z,-0.50
2022-12-12T06:53:37.458Z,-0.50
2022-12-12T06:56:18.850Z,-0.50
2022-12-12T06:58:45.701Z,-0.50
2022-12-12T07:01:14.493Z,-0.50
2022-12-12T07:03:41.611Z,-0.50
2022-12-12T07:06:08.638Z,-0.50
2022-12-12T07:08:35.926Z,-0.50
2022-12-12T07:11:18.838Z,-0.60
2022-12-12T07:13:46.043Z,-0.60
2022-12-12T07:16:13.436Z,-0.60
2022-12-12T07:18:40.341Z,-0.60
2022-12-12T07:21:15.228Z,-0.60
2022-12-12T07:23:42.264Z,-0.70
2022-12-12T07:26:14.465Z,-0.70
2022-12-12T07:28:41.631Z,-0.70
2022-12-12T07:31:11.936Z,-0.70
2022-12-12T07:33:44.120Z,-0.60
2022-12-12T07:36:13.129Z,-0.60
2022-12-12T07:38:40.676Z,-0.60
2022-12-12T07:41:12.349Z,-0.60
2022-12-12T07:43:43.850Z,-0.60
2022-12-12T07:46:17.980Z,-0.60
2022-12-12T07:48:44.915Z,-0.60
2022-12-12T07:51:12.660Z,-0.60
2022-12-12T07:53:39.665Z,-0.50
2022-12-12T07:56:09.064Z,-0.50
2022-12-12T07:58:36.262Z,-0.50
2022-12-12T08:01:27.733Z,-0.50
2022-12-12T08:03:56.550Z,-0.50
2022-12-12T08:06:23.922Z,-0.50
2022-12-12T08:08:52.394Z,-0.50
2022-12-12T08:11:22.819Z,-0.50
2022-12-12T08:13:50.057Z,-0.50
2022-12-12T08:16:26.454Z,-0.40
2022-12-12T08:18:55.412Z,-0.40
2022-12-12T08:21:25.883Z,-0.40
2022-12-12T08:24:02.119Z,-0.40
2022-12-12T08:26:30.390Z,-0.40
2022-12-12T08:28:57.534Z,-0.40
2022-12-12T08:31:25.567Z,-0.40
2022-12-12T08:33:53.234Z,-0.40
2022-12-12T08:36:30.154Z,-0.30
2022-12-12T08:39:05.822Z,-0.30
2022-12-12T08:41:34.486Z,-0.30
2022-12-12T08:44:01.299Z,-0.30
2022-12-12T08:46:28.293Z,-0.30
2022-12-12T08:48:55.136Z,-0.30
2022-12-12T08:51:22.563Z,-0.30
2022-12-12T08:53:53.049Z,-0.30
2022-12-12T08:56:21.971Z,-0.30
2022-12-12T08:58:50.522Z,-0.30
2022-12-12T09:01:24.401Z,-0.30
2022-12-12T09:03:54.642Z,-0.20
2022-12-12T09:06:22.393Z,-0.30
2022-12-12T09:08:50.053Z,-0.20
2022-12-12T09:11:17.880Z,-0.20
2022-12-12T09:13:44.864Z,-0.20
2022-12-12T09:16:13.025Z,-0.20
2022-12-12T09:18:46.369Z,-0.30
2022-12-12T09:21:15.962Z,-0.30
2022-12-12T09:23:42.792Z,-0.30
2022-12-12T09:26:10.389Z,-0.30
2022-12-12T09:28:37.544Z,-0.30
2022-12-12T09:31:07.039Z,-0.30
2022-12-12T09:33:34.136Z,-0.30
2022-12-12T09:36:04.560Z,-0.20
2022-12-12T09:38:32.015Z,-0.20
2022-12-12T09:41:13.100Z,-0.20
2022-12-12T09:43:56.914Z,-0.20
2022-12-12T09:46:40.080Z,-0.10
2022-12-12T09:49:20.472Z,-0.10
2022-12-12T09:51:50.137Z,-0.10
2022-12-12T09:54:23.632Z,-0.10
2022-12-12T09:57:18.100Z,0.00
2022-12-12T10:00:08.351Z,0.00
2022-12-12T10:03:00.429Z,0.00
2022-12-12T10:06:13.385Z,0.10
2022-12-12T10:08:54.816Z,0.10
2022-12-12T10:11:50.744Z,0.20
2022-12-12T10:14:39.698Z,0.20
2022-12-12T10:17:33.563Z,0.30
2022-12-12T10:20:14.363Z,0.30
2022-12-12T10:23:04.504Z,0.40
2022-12-12T10:25:46.135Z,0.40
2022-12-12T10:28:17.019Z,0.40
2022-12-12T10:31:14.085Z,0.50
2022-12-12T10:34:05.697Z,0.50
2022-12-12T10:36:56.549Z,0.60
2022-12-12T10:40:02.050Z,0.60
2022-12-12T10:42:59.722Z,0.70
2022-12-12T10:45:48.401Z,0.70
2022-12-12T10:48:15.329Z,0.80
2022-12-12T10:50:50.970Z,0.80
2022-12-12T10:53:20.214Z,0.90
2022-12-12T10:55:56.836Z,0.90
2022-12-12T10:58:37.460Z,0.90
2022-12-12T11:02:08.383Z,1.00
2022-12-12T11:04:27.549Z,1.00
2022-12-12T11:06:56.198Z,1.10
2022-12-12T11:09:28.941Z,1.10
2022-12-12T11:12:11.917Z,1.10
2022-12-12T11:14:45.871Z,1.20
2022-12-12T11:17:31.838Z,1.20
2022-12-12T11:20:02.337Z,1.20
2022-12-12T11:22:33.124Z,1.30
2022-12-12T11:25:00.539Z,1.30
2022-12-12T11:27:33.414Z,1.30
2022-12-12T11:30:24.705Z,1.40
2022-12-12T11:32:55.346Z,1.40
2022-12-12T11:35:33.673Z,1.40
2022-12-12T11:38:14.524Z,1.40
2022-12-12T11:40:41.449Z,1.50
2022-12-12T11:43:38.545Z,1.50
2022-12-12T11:46:24.730Z,1.60
2022-12-12T11:48:59.352Z,1.60
2022-12-12T11:51:36.656Z,1.60
2022-12-12T11:54:18.385Z,1.70
2022-12-12T11:57:02.160Z,1.70
2022-12-12T12:00:10.375Z,1.80
2022-12-12T12:03:12.417Z,1.80
2022-12-12T12:05:52.246Z,1.80
2022-12-12T12:08:57.670Z,1.90
2022-12-12T12:11:57.882Z,1.90
2022-12-12T12:15:36.180Z,2.00
2022-12-12T12:18:30.882Z,2.00
2022-12-12T12:21:37.057Z,2.10
2022-12-12T12:24:32.202Z,2.10
2022-12-12T12:27:42.178Z,2.10
2022-12-12T12:30:23.659Z,2.10
2022-12-12T12:33:15.201Z,2.20
2022-12-12T12:35:50.834Z,2.20
2022-12-12T12:38:42.879Z,2.30
2022-12-12T12:41:21.407Z,2.30
2022-12-12T12:44:12.924Z,2.40
2022-12-12T12:47:23.961Z,2.40
2022-12-12T12:50:04.442Z,2.40
2022-12-12T12:53:20.069Z,2.50
2022-12-12T12:55:54.020Z,2.60
2022-12-12T12:58:31.230Z,2.60
2022-12-12T13:01:12.151Z,2.60
2022-12-12T13:03:50.498Z,2.60
2022-12-12T13:06:35.677Z,2.50
2022-12-12T13:09:44.701Z,2.60
2022-12-12T13:12:39.156Z,2.60
2022-12-12T13:15:27.022Z,2.50
2022-12-12T13:18:04.701Z,2.60
2022-12-12T13:20:40.921Z,2.60
2022-12-12T13:23:46.888Z,2.60
2022-12-12T13:26:28.193Z,2.60
2022-12-12T13:29:23.379Z,2.60
2022-12-12T13:32:11.680Z,2.60
2022-12-12T13:34:46.850Z,2.60
2022-12-12T13:37:19.352Z,2.60
2022-12-12T13:39:47.259Z,2.60
2022-12-12T13:42:14.817Z,2.60
2022-12-12T13:44:51.228Z,2.50
2022-12-12T13:47:17.925Z,2.50
2022-12-12T13:50:20.230Z,2.50
2022-12-12T13:53:06.928Z,2.50
2022-12-12T13:55:35.608Z,2.50
2022-12-12T13:58:02.786Z,2.40
2022-12-12T14:00:40.767Z,2.40
2022-12-12T14:03:10.569Z,2.40
2022-12-12T14:05:49.391Z,2.30
2022-12-12T14:08:16.156Z,2.30
2022-12-12T14:10:48.848Z,2.30
2022-12-12T14:13:21.598Z,2.30
2022-12-12T14:15:56.057Z,2.20
2022-12-12T14:18:38.943Z,2.20
2022-12-12T14:21:13.058Z,2.10
2022-12-12T14:23:42.949Z,2.10
2022-12-12T14:26:28.263Z,2.10
2022-12-12T14:29:16.885Z,2.00
2022-12-12T14:31:56.475Z,2.00
2022-12-12T14:34:53.992Z,1.90
2022-12-12T14:37:52.184Z,1.90
2022-12-12T14:40:27.525Z,1.80
2022-12-12T14:43:23.400Z,1.80
2022-12-12T14:45:50.305Z,1.80
2022-12-12T14:48:34.455Z,1.70
2022-12-12T14:51:07.112Z,1.70
2022-12-12T14:53:55.510Z,1.60
2022-12-12T14:56:39.448Z,1.60
2022-12-12T14:59:17.085Z,1.60
2022-12-12T15:01:48.487Z,1.50
2022-12-12T15:04:26.526Z,1.50
2022-12-12T15:07:02.431Z,1.50
2022-12-12T15:09:38.775Z,1.40
2022-12-12T15:12:21.341Z,1.40
2022-12-12T15:14:48.069Z,1.40
2022-12-12T15:17:31.759Z,1.40
2022-12-12T15:20:05.853Z,1.40
2022-12-12T15:22:35.281Z,1.40
2022-12-12T15:25:17.137Z,1.40
2022-12-12T15:27:53.839Z,1.40
2022-12-12T15:30:37.600Z,1.40
2022-12-12T15:33:07.940Z,1.40
2022-12-12T15:35:35.113Z,1.40
2022-12-12T15:38:13.311Z,1.40
2022-12-12T15:40:41.138Z,1.40
2022-12-12T15:43:15.115Z,1.30
2022-12-12T15:45:51.244Z,1.30
2022-12-12T15:48:19.417Z,1.30
2022-12-12T15:50:46.141Z,1.30
2022-12-12T15:53:27.365Z,1.30
2022-12-12T15:56:14.910Z,1.20
2022-12-12T15:58:44.631Z,1.20
2022-12-12T16:01:20.051Z,1.20
2022-12-12T16:04:24.500Z,1.20
2022-12-12T16:06:51.384Z,1.10
2022-12-12T16:09:20.866Z,1.10
2022-12-12T16:11:58.839Z,1.10
2022-12-12T16:14:42.649Z,1.00
2022-12-12T16:17:24.846Z,1.00
2022-12-12T16:20:13.864Z,0.90
2022-12-12T16:22:48.310Z,0.90
2022-12-12T16:25:28.063Z,0.80
2022-12-12T16:28:09.933Z,0.80
2022-12-12T16:30:42.323Z,0.70
2022-12-12T16:33:31.411Z,0.70
2022-12-12T16:36:01.949Z,0.60
2022-12-12T16:38:30.152Z,0.60
2022-12-12T16:41:04.299Z,0.50
2022-12-12T16:43:31.376Z,0.50
2022-12-12T16:45:58.373Z,0.40
2022-12-12T16:48:27.821Z,0.30
2022-12-12T16:51:02.750Z,0.30
2022-12-12T16:53:29.877Z,0.20
2022-12-12T16:55:57.110Z,0.20
2022-12-12T16:58:25.149Z,0.10
2022-12-12T17:00:53.451Z,0.10
2022-12-12T17:03:23.443Z,0.10
2022-12-12T17:05:51.861Z,0.00
2022-12-12T17:08:20.409Z,0.00
2022-12-12T17:10:49.906Z,0.00
2022-12-12T17:13:20.671Z,-0.10
2022-12-12T17:15:47.578Z,-0.10
2022-12-12T17:18:14.707Z,-0.20
2022-12-12T17:20:42.094Z,-0.20
2022-12-12T17:23:27.414Z,-0.30
2022-12-12T17:25:59.086Z,-0.30
2022-12-12T17:28:30.357Z,-0.30
2022-12-12T17:30:57.369Z,-0.40
2022-12-12T17:33:24.226Z,-0.40
2022-12-12T17:36:00.985Z,-0.40
2022-12-12T17:38:27.930Z,-0.40
2022-12-12T17:40:56.676Z,-0.40
2022-12-12T17:43:25.191Z,-0.40
2022-12-12T17:46:07.685Z,-0.50
2022-12-12T17:48:36.155Z,-0.50
2022-12-12T17:51:06.181Z,-0.60
2022-12-12T17:53:39.218Z,-0.60
2022-12-12T17:56:09.700Z,-0.70
2022-12-12T17:58:40.184Z,-0.70
2022-12-12T18:01:15.694Z,-0.80
2022-12-12T18:03:43.501Z,-0.80
2022-12-12T18:06:10.890Z,-0.80
2022-12-12T18:08:40.333Z,-0.90
2022-12-12T18:11:14.690Z,-0.90
2022-12-12T18:13:42.174Z,-0.90
2022-12-12T18:16:12.951Z,-0.90
2022-12-12T18:18:40.560Z,-1.00
2022-12-12T18:21:35.913Z,-1.00
2022-12-12T18:24:02.378Z,-1.00
2022-12-12T18:26:29.286Z,-1.10
2022-12-12T18:29:00.133Z,-1.10
2022-12-12T18:31:27.613Z,-1.20
2022-12-12T18:33:54.988Z,-1.20
2022-12-12T18:36:24.800Z,-1.30
2022-12-12T18:38:52.033Z,-1.30
2022-12-12T18:41:19.250Z,-1.30
2022-12-12T18:43:46.083Z,-1.40
2022-12-12T18:46:17.371Z,-1.40
2022-12-12T18:48:46.365Z,-1.40
2022-12-12T18:51:23.243Z,-1.40
2022-12-12T18:53:52.809Z,-1.50
2022-12-12T18:56:24.240Z,-1.50
2022-12-12T18:58:54.387Z,-1.60
2022-12-12T19:01:26.838Z,-1.60
2022-12-12T19:03:58.508Z,-1.60
2022-12-12T19:06:35.502Z,-1.70
2022-12-12T19:09:15.376Z,-1.70
2022-12-12T19:11:43.238Z,-1.70
2022-12-12T19:14:13.056Z,-1.70
2022-12-12T19:16:40.215Z,-1.70
2022-12-12T19:19:09.415Z,-1.70
2022-12-12T19:21:38.355Z,-1.80
2022-12-12T19:24:09.105Z,-1.80
2022-12-12T19:26:37.230Z,-1.80
2022-12-12T19:29:07.639Z,-1.80
2022-12-12T19:31:36.027Z,-1.80
2022-12-12T19:34:05.802Z,-1.80
2022-12-12T19:36:33.334Z,-1.80
2022-12-12T19:39:02.924Z,-1.80
2022-12-12T19:41:30.178Z,-1.80
2022-12-12T19:44:01.482Z,-1.90
2022-12-12T19:46:31.002Z,-1.90
2022-12-12T19:49:04.650Z,-1.90
2022-12-12T19:51:35.735Z,-1.90
2022-12-12T19:54:07.808Z,-1.90
2022-12-12T19:56:37.456Z,-2.00
2022-12-12T19:59:04.669Z,-2.00
2022-12-12T20:01:34.543Z,-2.00
2022-12-12T20:04:18.062Z,-2.00
2022-12-12T20:06:46.175Z,-2.00
2022-12-12T20:09:20.215Z,-2.00
2022-12-12T20:11:47.924Z,-2.10
2022-12-12T20:14:21.829Z,-2.10
2022-12-12T20:16:49.879Z,-2.10
2022-12-12T20:19:18.089Z,-2.10
2022-12-12T20:22:03.610Z,-2.10
2022-12-12T20:24:33.406Z,-2.20
2022-12-12T20:27:03.072Z,-2.20
2022-12-12T20:29:30.572Z,-2.20
2022-12-12T20:31:59.604Z,-2.30
2022-12-12T20:34:26.545Z,-2.30
2022-12-12T20:36:55.426Z,-2.30
2022-12-12T20:39:23.188Z,-2.40
2022-12-12T20:41:53.205Z,-2.40
2022-12-12T20:44:20.052Z,-2.40
2022-12-12T20:46:47.437Z,-2.40
2022-12-12T20:49:18.289Z,-2.40
2022-12-12T20:52:01.221Z,-2.40
2022-12-12T20:54:29.170Z,-2.40
2022-12-12T20:56:57.833Z,-2.50
2022-12-12T20:59:25.874Z,-2.50
2022-12-12T21:01:53.244Z,-2.50
2022-12-12T21:04:20.792Z,-2.50
2022-12-12T21:06:49.350Z,-2.50
2022-12-12T21:09:23.344Z,-2.50
2022-12-12T21:11:57.923Z,-2.60
2022-12-12T21:14:30.611Z,-2.60
2022-12-12T21:16:57.478Z,-2.60
2022-12-12T21:19:24.359Z,-2.70
2022-12-12T21:21:52.031Z,-2.70
2022-12-12T21:24:20.215Z,-2.70
2022-12-12T21:26:48.089Z,-2.70
2022-12-12T21:29:16.075Z,-2.80
2022-12-12T21:31:50.466Z,-2.80
2022-12-12T21:34:23.145Z,-2.90
2022-12-12T21:36:54.816Z,-2.90
2022-12-12T21:39:26.625Z,-2.90
2022-12-12T21:41:55.078Z,-3.00
2022-12-12T21:44:22.271Z,-3.00
2022-12-12T21:46:49.278Z,-3.00
2022-12-12T21:49:19.868Z,-3.00
2022-12-12T21:51:47.055Z,-3.00
2022-12-12T21:54:15.319Z,-3.00
2022-12-12T21:56:42.890Z,-3.10
2022-12-12T21:59:12.612Z,-3.00
2022-12-12T22:01:40.131Z,-3.10
2022-12-12T22:04:07.323Z,-3.10
2022-12-12T22:06:36.041Z,-3.10
2022-12-12T22:09:06.482Z,-3.10
2022-12-12T22:11:40.061Z,-3.20
2022-12-12T22:14:10.837Z,-3.20
2022-12-12T22:16:38.575Z,-3.20
2022-12-12T22:19:10.944Z,-3.20
2022-12-12T22:21:38.394Z,-3.20
2022-12-12T22:24:06.304Z,-3.20
2022-12-12T22:26:36.890Z,-3.20
2022-12-12T22:29:08.191Z,-3.30
2022-12-12T22:31:38.094Z,-3.30
2022-12-12T22:34:10.955Z,-3.30
2022-12-12T22:36:39.476Z,-3.40
2022-12-12T22:39:10.208Z,-3.40
2022-12-12T22:41:37.044Z,-3.40
2022-12-12T22:44:06.600Z,-3.40
2022-12-12T22:46:36.932Z,-3.50
2022-12-12T22:49:05.980Z,-3.50
2022-12-12T22:51:33.868Z,-3.50
2022-12-12T22:54:04.226Z,-3.50
2022-12-12T22:56:34.323Z,-3.50
2022-12-12T22:59:01.320Z,-3.50
2022-12-12T23:01:29.307Z,-3.50
2022-12-12T23:03:56.557Z,-3.50
2022-12-12T23:06:27.619Z,-3.50
2022-12-12T23:08:58.148Z,-3.50
2022-12-12T23:11:27.932Z,-3.60
2022-12-12T23:14:00.165Z,-3.60
2022-12-12T23:16:35.512Z,-3.60
2022-12-12T23:19:05.147Z,-3.60
2022-12-12T23:21:33.345Z,-3.70
2022-12-12T23:24:00.247Z,-3.70
2022-12-12T23:26:32.450Z,-3.70
2022-12-12T23:29:00.142Z,-3.70
2022-12-12T23:31:31.387Z,-3.70
2022-12-12T23:34:05.581Z,-3.70
2022-12-12T23:36:32.683Z,-3.70
2022-12-12T23:39:04.696Z,-3.70
2022-12-12T23:41:31.934Z,-3.80
2022-12-12T23:43:58.871Z,-3.80
2022-12-12T23:46:29.101Z,-3.80
2022-12-12T23:48:58.875Z,-3.80
2022-12-12T23:51:28.592Z,-3.80
2022-12-12T23:53:59.955Z,-3.80
2022-12-12T23:56:27.840Z,-3.90
2022-12-12T23:58:56.812Z,-3.90
